sensor_id;sensor_type;location;lat;lon;timestamp;P1;durP1;ratioP1;P2;durP2;ratioP2
1947;SDS011;974;52.400;9.818;2022-07-22T00:02:12;8.10;;;4.77;;
1947;SDS011;974;52.400;9.818;2022-07-22T00:04:37;8.20;;;5.40;;
1947;SDS011;974;52.400;9.818;2022-07-22T00:07:03;9.53;;;5.37;;
1947;SDS011;974;52.400;9.818;2022-07-22T00:09:29;6.63;;;4.60;;
1947;SDS011;974;52.400;9.818;2022-07-22T00:11:55;9.40;;;5.90;;
1947;SDS011;974;52.400;9.818;2022-07-22T00:14:20;7.70;;;5.60;;
1947;SDS011;974;52.400;9.818;2022-07-22T00:16:46;7.90;;;5.10;;
1947;SDS011;974;52.400;9.818;2022-07-22T00:19:11;6.67;;;4.77;;
1947;SDS011;974;52.400;9.818;2022-07-22T00:21:37;8.43;;;5.83;;
1947;SDS011;974;52.400;9.818;2022-07-22T00:24:02;7.40;;;5.10;;
1947;SDS011;974;52.400;9.818;2022-07-22T00:26:29;7.20;;;4.50;;
1947;SDS011;974;52.400;9.818;2022-07-22T00:28:54;9.13;;;5.70;;
1947;SDS011;974;52.400;9.818;2022-07-22T00:31:20;8.17;;;5.70;;
1947;SDS011;974;52.400;9.818;2022-07-22T00:33:45;9.57;;;6.07;;
1947;SDS011;974;52.400;9.818;2022-07-22T00:36:11;10.73;;;6.07;;
1947;SDS011;974;52.400;9.818;2022-07-22T00:38:37;8.00;;;5.83;;
1947;SDS011;974;52.400;9.818;2022-07-22T00:41:03;9.10;;;5.85;;
1947;SDS011;974;52.400;9.818;2022-07-22T00:43:47;8.67;;;5.50;;
1947;SDS011;974;52.400;9.818;2022-07-22T00:46:14;12.20;;;6.25;;
1947;SDS011;974;52.400;9.818;2022-07-22T00:48:39;10.53;;;6.23;;
1947;SDS011;974;52.400;9.818;2022-07-22T00:51:05;9.20;;;6.60;;
1947;SDS011;974;52.400;9.818;2022-07-22T00:53:30;8.83;;;5.47;;
1947;SDS011;974;52.400;9.818;2022-07-22T00:55:56;10.73;;;5.60;;
1947;SDS011;974;52.400;9.818;2022-07-22T00:58:22;8.87;;;5.80;;
1947;SDS011;974;52.400;9.818;2022-07-22T01:00:47;10.20;;;6.70;;
1947;SDS011;974;52.400;9.818;2022-07-22T01:03:13;8.77;;;5.37;;
1947;SDS011;974;52.400;9.818;2022-07-22T01:05:38;8.43;;;5.93;;
1947;SDS011;974;52.400;9.818;2022-07-22T01:08:07;7.00;;;4.53;;
1947;SDS011;974;52.400;9.818;2022-07-22T01:10:32;8.65;;;5.80;;
1947;SDS011;974;52.400;9.818;2022-07-22T01:12:58;8.93;;;6.00;;
1947;SDS011;974;52.400;9.818;2022-07-22T01:15:23;8.20;;;5.57;;
1947;SDS011;974;52.400;9.818;2022-07-22T01:17:49;6.70;;;5.20;;
1947;SDS011;974;52.400;9.818;2022-07-22T01:20:15;10.90;;;5.97;;
1947;SDS011;974;52.400;9.818;2022-07-22T01:22:40;9.03;;;6.47;;
1947;SDS011;974;52.400;9.818;2022-07-22T01:25:06;7.97;;;6.00;;
1947;SDS011;974;52.400;9.818;2022-07-22T01:27:32;9.03;;;5.60;;
1947;SDS011;974;52.400;9.818;2022-07-22T01:29:57;8.57;;;5.80;;
1947;SDS011;974;52.400;9.818;2022-07-22T01:32:23;9.00;;;6.17;;
1947;SDS011;974;52.400;9.818;2022-07-22T01:34:48;10.90;;;5.77;;
1947;SDS011;974;52.400;9.818;2022-07-22T01:37:14;9.87;;;6.17;;
1947;SDS011;974;52.400;9.818;2022-07-22T01:39:39;12.07;;;6.23;;
1947;SDS011;974;52.400;9.818;2022-07-22T01:42:05;10.67;;;6.37;;
1947;SDS011;974;52.400;9.818;2022-07-22T01:44:31;10.00;;;6.23;;
1947;SDS011;974;52.400;9.818;2022-07-22T01:46:57;10.63;;;7.03;;
1947;SDS011;974;52.400;9.818;2022-07-22T01:49:23;9.80;;;7.20;;
1947;SDS011;974;52.400;9.818;2022-07-22T01:51:49;10.57;;;7.07;;
1947;SDS011;974;52.400;9.818;2022-07-22T01:54:15;16.73;;;6.00;;
1947;SDS011;974;52.400;9.818;2022-07-22T01:56:40;8.80;;;6.20;;
1947;SDS011;974;52.400;9.818;2022-07-22T01:59:06;9.43;;;5.67;;
1947;SDS011;974;52.400;9.818;2022-07-22T02:01:32;8.25;;;5.82;;
1947;SDS011;974;52.400;9.818;2022-07-22T02:03:58;9.77;;;6.60;;
1947;SDS011;974;52.400;9.818;2022-07-22T02:06:23;9.80;;;6.37;;
1947;SDS011;974;52.400;9.818;2022-07-22T02:08:49;9.07;;;5.57;;
1947;SDS011;974;52.400;9.818;2022-07-22T02:11:14;9.07;;;6.50;;
1947;SDS011;974;52.400;9.818;2022-07-22T02:13:40;9.80;;;6.87;;
1947;SDS011;974;52.400;9.818;2022-07-22T02:16:06;6.37;;;3.87;;
1947;SDS011;974;52.400;9.818;2022-07-22T02:18:31;6.60;;;4.17;;
1947;SDS011;974;52.400;9.818;2022-07-22T02:20:57;7.23;;;2.93;;
1947;SDS011;974;52.400;9.818;2022-07-22T02:23:22;4.90;;;2.93;;
1947;SDS011;974;52.400;9.818;2022-07-22T02:25:47;4.60;;;2.50;;
1947;SDS011;974;52.400;9.818;2022-07-22T02:28:13;4.63;;;2.70;;
1947;SDS011;974;52.400;9.818;2022-07-22T02:30:39;6.50;;;3.30;;
1947;SDS011;974;52.400;9.818;2022-07-22T02:33:04;8.70;;;3.50;;
1947;SDS011;974;52.400;9.818;2022-07-22T02:35:30;5.70;;;3.57;;
1947;SDS011;974;52.400;9.818;2022-07-22T02:37:56;5.20;;;3.20;;
1947;SDS011;974;52.400;9.818;2022-07-22T02:40:21;7.83;;;3.83;;
1947;SDS011;974;52.400;9.818;2022-07-22T02:42:47;10.23;;;4.27;;
1947;SDS011;974;52.400;9.818;2022-07-22T02:45:12;6.60;;;3.20;;
1947;SDS011;974;52.400;9.818;2022-07-22T02:47:45;6.97;;;3.87;;
1947;SDS011;974;52.400;9.818;2022-07-22T02:50:15;5.32;;;3.00;;
1947;SDS011;974;52.400;9.818;2022-07-22T02:52:41;6.20;;;2.80;;
1947;SDS011;974;52.400;9.818;2022-07-22T02:55:07;4.40;;;2.28;;
1947;SDS011;974;52.400;9.818;2022-07-22T02:57:33;5.25;;;2.65;;
1947;SDS011;974;52.400;9.818;2022-07-22T02:59:59;5.50;;;2.93;;
1947;SDS011;974;52.400;9.818;2022-07-22T03:02:25;4.70;;;2.97;;
1947;SDS011;974;52.400;9.818;2022-07-22T03:04:50;7.47;;;3.23;;
1947;SDS011;974;52.400;9.818;2022-07-22T03:07:16;6.93;;;2.97;;
1947;SDS011;974;52.400;9.818;2022-07-22T03:09:41;7.00;;;3.40;;
1947;SDS011;974;52.400;9.818;2022-07-22T03:12:07;5.40;;;3.30;;
1947;SDS011;974;52.400;9.818;2022-07-22T03:14:33;8.70;;;3.80;;
1947;SDS011;974;52.400;9.818;2022-07-22T03:16:58;5.90;;;3.60;;
1947;SDS011;974;52.400;9.818;2022-07-22T03:19:24;8.73;;;3.43;;
1947;SDS011;974;52.400;9.818;2022-07-22T03:21:49;5.30;;;3.40;;
1947;SDS011;974;52.400;9.818;2022-07-22T03:24:15;5.20;;;3.10;;
1947;SDS011;974;52.400;9.818;2022-07-22T03:26:40;4.70;;;3.03;;
1947;SDS011;974;52.400;9.818;2022-07-22T03:29:06;5.90;;;2.70;;
1947;SDS011;974;52.400;9.818;2022-07-22T03:31:32;5.43;;;2.55;;
1947;SDS011;974;52.400;9.818;2022-07-22T03:33:58;4.90;;;2.77;;
1947;SDS011;974;52.400;9.818;2022-07-22T03:36:25;4.20;;;2.50;;
1947;SDS011;974;52.400;9.818;2022-07-22T03:38:52;5.28;;;2.63;;
1947;SDS011;974;52.400;9.818;2022-07-22T03:41:17;5.67;;;3.53;;
1947;SDS011;974;52.400;9.818;2022-07-22T03:43:43;4.33;;;2.90;;
1947;SDS011;974;52.400;9.818;2022-07-22T03:46:08;4.93;;;3.13;;
1947;SDS011;974;52.400;9.818;2022-07-22T03:48:34;5.27;;;2.83;;
1947;SDS011;974;52.400;9.818;2022-07-22T03:50:59;5.40;;;3.43;;
1947;SDS011;974;52.400;9.818;2022-07-22T03:53:25;4.40;;;3.03;;
1947;SDS011;974;52.400;9.818;2022-07-22T03:55:50;6.47;;;3.27;;
1947;SDS011;974;52.400;9.818;2022-07-22T03:58:16;5.13;;;2.70;;
1947;SDS011;974;52.400;9.818;2022-07-22T04:00:43;7.97;;;3.20;;
1947;SDS011;974;52.400;9.818;2022-07-22T04:03:08;7.10;;;3.40;;
1947;SDS011;974;52.400;9.818;2022-07-22T04:05:34;5.23;;;2.80;;
1947;SDS011;974;52.400;9.818;2022-07-22T04:07:59;4.70;;;2.53;;
1947;SDS011;974;52.400;9.818;2022-07-22T04:10:25;5.80;;;2.53;;
1947;SDS011;974;52.400;9.818;2022-07-22T04:12:50;5.47;;;2.50;;
1947;SDS011;974;52.400;9.818;2022-07-22T04:15:16;4.17;;;2.10;;
1947;SDS011;974;52.400;9.818;2022-07-22T04:17:41;5.67;;;2.70;;
1947;SDS011;974;52.400;9.818;2022-07-22T04:20:07;5.83;;;2.00;;
1947;SDS011;974;52.400;9.818;2022-07-22T04:22:33;5.22;;;2.25;;
1947;SDS011;974;52.400;9.818;2022-07-22T04:24:58;8.40;;;2.60;;
1947;SDS011;974;52.400;9.818;2022-07-22T04:27:24;5.57;;;2.47;;
1947;SDS011;974;52.400;9.818;2022-07-22T04:29:49;5.47;;;2.60;;
1947;SDS011;974;52.400;9.818;2022-07-22T04:32:15;5.97;;;2.80;;
1947;SDS011;974;52.400;9.818;2022-07-22T04:34:41;7.10;;;2.80;;
1947;SDS011;974;52.400;9.818;2022-07-22T04:37:06;6.27;;;3.03;;
1947;SDS011;974;52.400;9.818;2022-07-22T04:39:32;4.83;;;2.80;;
1947;SDS011;974;52.400;9.818;2022-07-22T04:41:58;5.63;;;2.70;;
1947;SDS011;974;52.400;9.818;2022-07-22T04:44:23;5.37;;;3.20;;
1947;SDS011;974;52.400;9.818;2022-07-22T04:46:49;6.10;;;3.70;;
1947;SDS011;974;52.400;9.818;2022-07-22T04:49:14;7.87;;;3.90;;
1947;SDS011;974;52.400;9.818;2022-07-22T04:51:40;8.30;;;3.70;;
1947;SDS011;974;52.400;9.818;2022-07-22T04:54:05;6.50;;;3.63;;
1947;SDS011;974;52.400;9.818;2022-07-22T04:56:31;6.60;;;4.00;;
1947;SDS011;974;52.400;9.818;2022-07-22T04:58:56;5.63;;;3.17;;
1947;SDS011;974;52.400;9.818;2022-07-22T05:01:22;10.40;;;3.70;;
1947;SDS011;974;52.400;9.818;2022-07-22T05:03:47;9.27;;;4.33;;
1947;SDS011;974;52.400;9.818;2022-07-22T05:06:13;5.88;;;3.75;;
1947;SDS011;974;52.400;9.818;2022-07-22T05:08:39;7.13;;;3.70;;
1947;SDS011;974;52.400;9.818;2022-07-22T05:11:04;5.77;;;3.80;;
1947;SDS011;974;52.400;9.818;2022-07-22T05:13:31;7.53;;;3.83;;
1947;SDS011;974;52.400;9.818;2022-07-22T05:15:56;5.03;;;3.10;;
1947;SDS011;974;52.400;9.818;2022-07-22T05:18:22;11.40;;;4.50;;
1947;SDS011;974;52.400;9.818;2022-07-22T05:20:48;6.13;;;3.23;;
1947;SDS011;974;52.400;9.818;2022-07-22T05:23:14;5.80;;;3.45;;
1947;SDS011;974;52.400;9.818;2022-07-22T05:25:39;5.63;;;3.40;;
1947;SDS011;974;52.400;9.818;2022-07-22T05:28:05;6.17;;;3.70;;
1947;SDS011;974;52.400;9.818;2022-07-22T05:30:30;5.93;;;3.27;;
1947;SDS011;974;52.400;9.818;2022-07-22T05:32:56;7.50;;;3.53;;
1947;SDS011;974;52.400;9.818;2022-07-22T05:35:21;4.60;;;2.60;;
1947;SDS011;974;52.400;9.818;2022-07-22T05:37:47;5.93;;;2.70;;
1947;SDS011;974;52.400;9.818;2022-07-22T05:40:12;6.57;;;3.43;;
1947;SDS011;974;52.400;9.818;2022-07-22T05:42:38;5.13;;;2.83;;
1947;SDS011;974;52.400;9.818;2022-07-22T05:45:04;6.10;;;3.77;;
1947;SDS011;974;52.400;9.818;2022-07-22T05:47:30;6.40;;;3.30;;
1947;SDS011;974;52.400;9.818;2022-07-22T05:49:55;7.70;;;3.80;;
1947;SDS011;974;52.400;9.818;2022-07-22T05:52:21;6.60;;;3.47;;
1947;SDS011;974;52.400;9.818;2022-07-22T05:54:47;8.33;;;3.80;;
1947;SDS011;974;52.400;9.818;2022-07-22T05:57:12;7.73;;;4.40;;
1947;SDS011;974;52.400;9.818;2022-07-22T05:59:37;6.30;;;3.20;;
1947;SDS011;974;52.400;9.818;2022-07-22T06:02:03;5.93;;;3.30;;
1947;SDS011;974;52.400;9.818;2022-07-22T06:04:29;4.70;;;2.83;;
1947;SDS011;974;52.400;9.818;2022-07-22T06:06:54;9.03;;;3.47;;
1947;SDS011;974;52.400;9.818;2022-07-22T06:09:20;4.80;;;2.83;;
1947;SDS011;974;52.400;9.818;2022-07-22T06:11:45;8.87;;;3.83;;
1947;SDS011;974;52.400;9.818;2022-07-22T06:14:11;6.50;;;3.50;;
1947;SDS011;974;52.400;9.818;2022-07-22T06:16:37;5.10;;;3.10;;
1947;SDS011;974;52.400;9.818;2022-07-22T06:19:02;5.50;;;3.30;;
1947;SDS011;974;52.400;9.818;2022-07-22T06:21:28;5.67;;;3.50;;
1947;SDS011;974;52.400;9.818;2022-07-22T06:23:54;7.53;;;4.43;;
1947;SDS011;974;52.400;9.818;2022-07-22T06:26:19;7.10;;;3.47;;
1947;SDS011;974;52.400;9.818;2022-07-22T06:28:45;7.20;;;2.97;;
1947;SDS011;974;52.400;9.818;2022-07-22T06:31:10;4.83;;;3.23;;
1947;SDS011;974;52.400;9.818;2022-07-22T06:33:36;6.17;;;2.97;;
1947;SDS011;974;52.400;9.818;2022-07-22T06:36:02;5.97;;;3.17;;
1947;SDS011;974;52.400;9.818;2022-07-22T06:38:28;5.10;;;3.10;;
1947;SDS011;974;52.400;9.818;2022-07-22T06:40:53;7.47;;;3.60;;
1947;SDS011;974;52.400;9.818;2022-07-22T06:43:19;5.70;;;3.60;;
1947;SDS011;974;52.400;9.818;2022-07-22T06:45:44;5.57;;;3.40;;
1947;SDS011;974;52.400;9.818;2022-07-22T06:48:10;5.73;;;2.93;;
1947;SDS011;974;52.400;9.818;2022-07-22T06:50:35;6.00;;;3.60;;
1947;SDS011;974;52.400;9.818;2022-07-22T06:53:01;7.20;;;2.93;;
1947;SDS011;974;52.400;9.818;2022-07-22T06:55:26;7.50;;;3.40;;
1947;SDS011;974;52.400;9.818;2022-07-22T06:57:52;9.73;;;3.90;;
1947;SDS011;974;52.400;9.818;2022-07-22T07:00:18;6.00;;;3.13;;
1947;SDS011;974;52.400;9.818;2022-07-22T07:02:43;5.70;;;3.30;;
1947;SDS011;974;52.400;9.818;2022-07-22T07:05:09;5.20;;;3.30;;
1947;SDS011;974;52.400;9.818;2022-07-22T07:07:35;6.57;;;3.37;;
1947;SDS011;974;52.400;9.818;2022-07-22T07:10:00;9.70;;;4.20;;
1947;SDS011;974;52.400;9.818;2022-07-22T07:12:26;6.47;;;4.00;;
1947;SDS011;974;52.400;9.818;2022-07-22T07:14:51;7.30;;;3.53;;
1947;SDS011;974;52.400;9.818;2022-07-22T07:17:17;6.10;;;3.60;;
1947;SDS011;974;52.400;9.818;2022-07-22T07:19:42;4.60;;;3.03;;
1947;SDS011;974;52.400;9.818;2022-07-22T07:22:08;9.20;;;3.60;;
1947;SDS011;974;52.400;9.818;2022-07-22T07:24:33;10.13;;;3.77;;
1947;SDS011;974;52.400;9.818;2022-07-22T07:26:59;5.87;;;3.20;;
1947;SDS011;974;52.400;9.818;2022-07-22T07:29:24;6.57;;;3.20;;
1947;SDS011;974;52.400;9.818;2022-07-22T07:31:50;7.27;;;2.97;;
1947;SDS011;974;52.400;9.818;2022-07-22T07:34:15;7.03;;;3.40;;
1947;SDS011;974;52.400;9.818;2022-07-22T07:36:41;6.90;;;3.00;;
1947;SDS011;974;52.400;9.818;2022-07-22T07:39:06;6.30;;;3.10;;
1947;SDS011;974;52.400;9.818;2022-07-22T07:41:32;13.97;;;6.40;;
1947;SDS011;974;52.400;9.818;2022-07-22T07:43:58;7.40;;;4.80;;
1947;SDS011;974;52.400;9.818;2022-07-22T07:46:24;12.13;;;3.77;;
1947;SDS011;974;52.400;9.818;2022-07-22T07:48:49;6.60;;;3.60;;
1947;SDS011;974;52.400;9.818;2022-07-22T07:51:15;4.60;;;3.07;;
1947;SDS011;974;52.400;9.818;2022-07-22T07:53:40;6.77;;;3.60;;
1947;SDS011;974;52.400;9.818;2022-07-22T07:56:06;7.90;;;3.43;;
1947;SDS011;974;52.400;9.818;2022-07-22T07:58:31;4.80;;;2.93;;
1947;SDS011;974;52.400;9.818;2022-07-22T08:00:57;13.40;;;3.33;;
1947;SDS011;974;52.400;9.818;2022-07-22T08:03:22;6.20;;;3.57;;
1947;SDS011;974;52.400;9.818;2022-07-22T08:05:48;4.60;;;2.90;;
1947;SDS011;974;52.400;9.818;2022-07-22T08:08:14;8.27;;;2.70;;
1947;SDS011;974;52.400;9.818;2022-07-22T08:10:39;6.90;;;2.80;;
1947;SDS011;974;52.400;9.818;2022-07-22T08:13:05;4.63;;;2.57;;
1947;SDS011;974;52.400;9.818;2022-07-22T08:15:31;8.03;;;2.60;;
1947;SDS011;974;52.400;9.818;2022-07-22T08:17:57;4.70;;;2.00;;
1947;SDS011;974;52.400;9.818;2022-07-22T08:20:24;5.55;;;2.42;;
1947;SDS011;974;52.400;9.818;2022-07-22T08:22:51;6.15;;;2.70;;
1947;SDS011;974;52.400;9.818;2022-07-22T08:25:17;7.72;;;2.10;;
1947;SDS011;974;52.400;9.818;2022-07-22T08:27:44;5.30;;;2.78;;
1947;SDS011;974;52.400;9.818;2022-07-22T08:30:10;8.32;;;2.33;;
1947;SDS011;974;52.400;9.818;2022-07-22T08:32:36;4.07;;;2.50;;
1947;SDS011;974;52.400;9.818;2022-07-22T08:35:02;6.30;;;2.30;;
1947;SDS011;974;52.400;9.818;2022-07-22T08:37:29;6.40;;;2.63;;
1947;SDS011;974;52.400;9.818;2022-07-22T08:39:54;4.47;;;2.17;;
1947;SDS011;974;52.400;9.818;2022-07-22T08:42:21;4.10;;;2.10;;
1947;SDS011;974;52.400;9.818;2022-07-22T08:44:47;11.10;;;3.00;;
1947;SDS011;974;52.400;9.818;2022-07-22T08:47:13;5.75;;;2.60;;
1947;SDS011;974;52.400;9.818;2022-07-22T08:49:39;3.70;;;2.30;;
1947;SDS011;974;52.400;9.818;2022-07-22T08:52:05;5.97;;;2.40;;
1947;SDS011;974;52.400;9.818;2022-07-22T08:54:30;6.60;;;2.67;;
1947;SDS011;974;52.400;9.818;2022-07-22T08:56:56;4.93;;;2.70;;
1947;SDS011;974;52.400;9.818;2022-07-22T08:59:21;5.87;;;2.97;;
1947;SDS011;974;52.400;9.818;2022-07-22T09:04:49;8.95;;;3.22;;
1947;SDS011;974;52.400;9.818;2022-07-22T09:07:23;6.25;;;2.75;;
1947;SDS011;974;52.400;9.818;2022-07-22T09:09:56;5.43;;;2.70;;
1947;SDS011;974;52.400;9.818;2022-07-22T09:12:23;5.20;;;3.15;;
1947;SDS011;974;52.400;9.818;2022-07-22T09:14:50;4.38;;;2.90;;
1947;SDS011;974;52.400;9.818;2022-07-22T09:17:28;6.22;;;2.70;;
1947;SDS011;974;52.400;9.818;2022-07-22T09:20:00;7.22;;;3.13;;
1947;SDS011;974;52.400;9.818;2022-07-22T09:22:36;6.22;;;2.65;;
1947;SDS011;974;52.400;9.818;2022-07-22T09:25:18;4.55;;;2.25;;
1947;SDS011;974;52.400;9.818;2022-07-22T09:27:45;5.05;;;2.90;;
1947;SDS011;974;52.400;9.818;2022-07-22T09:30:15;13.10;;;4.22;;
1947;SDS011;974;52.400;9.818;2022-07-22T09:32:46;5.57;;;3.25;;
1947;SDS011;974;52.400;9.818;2022-07-22T09:35:12;7.50;;;3.13;;
1947;SDS011;974;52.400;9.818;2022-07-22T09:37:47;5.33;;;2.53;;
1947;SDS011;974;52.400;9.818;2022-07-22T09:40:18;4.67;;;3.00;;
1947;SDS011;974;52.400;9.818;2022-07-22T09:42:51;8.45;;;3.65;;
1947;SDS011;974;52.400;9.818;2022-07-22T09:45:22;4.57;;;3.05;;
1947;SDS011;974;52.400;9.818;2022-07-22T09:47:49;5.47;;;3.15;;
1947;SDS011;974;52.400;9.818;2022-07-22T09:52:52;16.40;;;9.70;;
1947;SDS011;974;52.400;9.818;2022-07-22T09:55:19;6.47;;;2.92;;
1947;SDS011;974;52.400;9.818;2022-07-22T09:57:46;5.88;;;2.70;;
1947;SDS011;974;52.400;9.818;2022-07-22T10:00:13;6.57;;;3.53;;
1947;SDS011;974;52.400;9.818;2022-07-22T10:02:54;5.90;;;3.47;;
1947;SDS011;974;52.400;9.818;2022-07-22T10:05:25;12.57;;;4.35;;
1947;SDS011;974;52.400;9.818;2022-07-22T10:07:53;5.90;;;3.65;;
1947;SDS011;974;52.400;9.818;2022-07-22T10:10:21;6.60;;;3.22;;
1947;SDS011;974;52.400;9.818;2022-07-22T10:12:52;7.28;;;3.30;;
1947;SDS011;974;52.400;9.818;2022-07-22T10:15:19;8.13;;;3.13;;
1947;SDS011;974;52.400;9.818;2022-07-22T10:17:52;6.53;;;3.22;;
1947;SDS011;974;52.400;9.818;2022-07-22T10:20:21;5.75;;;3.20;;
1947;SDS011;974;52.400;9.818;2022-07-22T10:25:19;7.53;;;2.80;;
1947;SDS011;974;52.400;9.818;2022-07-22T10:30:51;7.13;;;3.83;;
1947;SDS011;974;52.400;9.818;2022-07-22T10:33:18;8.50;;;3.20;;
1947;SDS011;974;52.400;9.818;2022-07-22T10:35:57;6.65;;;3.55;;
1947;SDS011;974;52.400;9.818;2022-07-22T10:38:27;5.70;;;3.30;;
1947;SDS011;974;52.400;9.818;2022-07-22T10:40:55;4.97;;;2.85;;
1947;SDS011;974;52.400;9.818;2022-07-22T10:43:24;3.63;;;2.10;;
1947;SDS011;974;52.400;9.818;2022-07-22T10:45:52;4.95;;;2.63;;
1947;SDS011;974;52.400;9.818;2022-07-22T10:51:16;4.60;;;2.70;;
1947;SDS011;974;52.400;9.818;2022-07-22T10:53:54;4.88;;;2.60;;
1947;SDS011;974;52.400;9.818;2022-07-22T10:56:34;6.28;;;2.60;;
1947;SDS011;974;52.400;9.818;2022-07-22T10:59:15;4.05;;;2.80;;
1947;SDS011;974;52.400;9.818;2022-07-22T11:01:45;6.70;;;2.83;;
1947;SDS011;974;52.400;9.818;2022-07-22T11:04:16;6.80;;;2.40;;
1947;SDS011;974;52.400;9.818;2022-07-22T11:06:47;4.63;;;2.95;;
1947;SDS011;974;52.400;9.818;2022-07-22T11:09:15;7.05;;;3.40;;
1947;SDS011;974;52.400;9.818;2022-07-22T11:11:47;5.60;;;3.00;;
1947;SDS011;974;52.400;9.818;2022-07-22T11:14:21;5.50;;;3.00;;
1947;SDS011;974;52.400;9.818;2022-07-22T11:17:04;9.25;;;4.97;;
1947;SDS011;974;52.400;9.818;2022-07-22T11:19:35;9.50;;;3.53;;
1947;SDS011;974;52.400;9.818;2022-07-22T11:22:06;10.52;;;3.70;;
1947;SDS011;974;52.400;9.818;2022-07-22T11:24:33;6.93;;;2.90;;
1947;SDS011;974;52.400;9.818;2022-07-22T11:27:02;8.70;;;3.63;;
1947;SDS011;974;52.400;9.818;2022-07-22T11:29:38;6.55;;;4.43;;
1947;SDS011;974;52.400;9.818;2022-07-22T11:32:06;6.88;;;3.00;;
1947;SDS011;974;52.400;9.818;2022-07-22T11:34:37;5.68;;;2.70;;
1947;SDS011;974;52.400;9.818;2022-07-22T11:37:07;9.27;;;3.17;;
1947;SDS011;974;52.400;9.818;2022-07-22T11:39:33;7.80;;;3.60;;
1947;SDS011;974;52.400;9.818;2022-07-22T11:41:59;7.43;;;3.23;;
1947;SDS011;974;52.400;9.818;2022-07-22T11:44:28;6.63;;;4.10;;
1947;SDS011;974;52.400;9.818;2022-07-22T11:46:55;6.60;;;3.42;;
1947;SDS011;974;52.400;9.818;2022-07-22T11:49:23;4.97;;;2.70;;
1947;SDS011;974;52.400;9.818;2022-07-22T11:51:51;9.30;;;4.03;;
1947;SDS011;974;52.400;9.818;2022-07-22T11:54:17;10.38;;;4.90;;
1947;SDS011;974;52.400;9.818;2022-07-22T11:56:42;7.13;;;4.33;;
1947;SDS011;974;52.400;9.818;2022-07-22T11:59:11;10.43;;;3.30;;
1947;SDS011;974;52.400;9.818;2022-07-22T12:01:38;8.45;;;3.35;;
1947;SDS011;974;52.400;9.818;2022-07-22T12:04:06;8.45;;;3.78;;
1947;SDS011;974;52.400;9.818;2022-07-22T12:06:36;4.30;;;2.67;;
1947;SDS011;974;52.400;9.818;2022-07-22T12:09:08;8.43;;;2.92;;
1947;SDS011;974;52.400;9.818;2022-07-22T12:11:44;6.60;;;3.22;;
1947;SDS011;974;52.400;9.818;2022-07-22T12:14:12;5.70;;;2.83;;
1947;SDS011;974;52.400;9.818;2022-07-22T12:16:39;4.73;;;2.80;;
1947;SDS011;974;52.400;9.818;2022-07-22T12:19:07;3.80;;;2.50;;
1947;SDS011;974;52.400;9.818;2022-07-22T12:21:57;6.20;;;3.13;;
1947;SDS011;974;52.400;9.818;2022-07-22T12:24:28;17.00;;;3.10;;
1947;SDS011;974;52.400;9.818;2022-07-22T12:34:30;7.43;;;2.80;;
1947;SDS011;974;52.400;9.818;2022-07-22T12:36:59;6.40;;;3.15;;
1947;SDS011;974;52.400;9.818;2022-07-22T12:39:35;5.17;;;2.80;;
1947;SDS011;974;52.400;9.818;2022-07-22T12:42:01;7.30;;;3.57;;
1947;SDS011;974;52.400;9.818;2022-07-22T12:44:26;5.20;;;3.00;;
1947;SDS011;974;52.400;9.818;2022-07-22T12:46:53;6.53;;;3.90;;
1947;SDS011;974;52.400;9.818;2022-07-22T12:49:21;5.88;;;3.47;;
1947;SDS011;974;52.400;9.818;2022-07-22T12:52:04;5.55;;;3.33;;
1947;SDS011;974;52.400;9.818;2022-07-22T12:54:35;9.15;;;3.90;;
1947;SDS011;974;52.400;9.818;2022-07-22T12:57:01;8.68;;;3.90;;
1947;SDS011;974;52.400;9.818;2022-07-22T12:59:27;5.13;;;3.35;;
1947;SDS011;974;52.400;9.818;2022-07-22T13:01:53;6.17;;;3.17;;
1947;SDS011;974;52.400;9.818;2022-07-22T13:04:18;10.60;;;3.83;;
1947;SDS011;974;52.400;9.818;2022-07-22T13:06:44;9.80;;;3.80;;
1947;SDS011;974;52.400;9.818;2022-07-22T13:09:09;7.93;;;5.07;;
1947;SDS011;974;52.400;9.818;2022-07-22T13:11:35;10.67;;;5.30;;
1947;SDS011;974;52.400;9.818;2022-07-22T13:14:04;6.82;;;3.80;;
1947;SDS011;974;52.400;9.818;2022-07-22T13:16:31;6.90;;;4.60;;
1947;SDS011;974;52.400;9.818;2022-07-22T13:18:57;6.20;;;4.00;;
1947;SDS011;974;52.400;9.818;2022-07-22T13:21:23;6.40;;;3.50;;
1947;SDS011;974;52.400;9.818;2022-07-22T13:23:48;7.43;;;3.57;;
1947;SDS011;974;52.400;9.818;2022-07-22T13:26:14;7.10;;;3.40;;
1947;SDS011;974;52.400;9.818;2022-07-22T13:28:39;6.87;;;3.40;;
1947;SDS011;974;52.400;9.818;2022-07-22T13:31:05;7.30;;;3.40;;
1947;SDS011;974;52.400;9.818;2022-07-22T13:33:30;12.10;;;4.00;;
1947;SDS011;974;52.400;9.818;2022-07-22T13:35:56;4.77;;;2.97;;
1947;SDS011;974;52.400;9.818;2022-07-22T13:38:21;7.70;;;3.30;;
1947;SDS011;974;52.400;9.818;2022-07-22T13:40:47;5.83;;;3.60;;
1947;SDS011;974;52.400;9.818;2022-07-22T13:43:16;6.35;;;3.35;;
1947;SDS011;974;52.400;9.818;2022-07-22T13:45:43;7.40;;;3.50;;
1947;SDS011;974;52.400;9.818;2022-07-22T13:48:08;11.03;;;3.70;;
1947;SDS011;974;52.400;9.818;2022-07-22T13:50:34;10.30;;;3.17;;
1947;SDS011;974;52.400;9.818;2022-07-22T13:52:59;6.53;;;3.33;;
1947;SDS011;974;52.400;9.818;2022-07-22T13:55:25;5.53;;;3.33;;
1947;SDS011;974;52.400;9.818;2022-07-22T13:57:51;6.50;;;3.70;;
1947;SDS011;974;52.400;9.818;2022-07-22T14:00:17;6.73;;;3.47;;
1947;SDS011;974;52.400;9.818;2022-07-22T14:02:46;7.93;;;4.20;;
1947;SDS011;974;52.400;9.818;2022-07-22T14:05:11;7.93;;;3.60;;
1947;SDS011;974;52.400;9.818;2022-07-22T14:07:37;5.83;;;3.80;;
1947;SDS011;974;52.400;9.818;2022-07-22T14:10:03;8.53;;;3.57;;
1947;SDS011;974;52.400;9.818;2022-07-22T14:12:29;10.33;;;3.47;;
1947;SDS011;974;52.400;9.818;2022-07-22T14:14:54;7.47;;;3.40;;
1947;SDS011;974;52.400;9.818;2022-07-22T14:17:20;5.37;;;3.33;;
1947;SDS011;974;52.400;9.818;2022-07-22T14:19:46;6.10;;;3.60;;
1947;SDS011;974;52.400;9.818;2022-07-22T14:22:11;7.23;;;3.67;;
1947;SDS011;974;52.400;9.818;2022-07-22T14:24:37;7.23;;;4.43;;
1947;SDS011;974;52.400;9.818;2022-07-22T14:27:02;8.10;;;4.80;;
1947;SDS011;974;52.400;9.818;2022-07-22T14:29:28;6.80;;;4.00;;
1947;SDS011;974;52.400;9.818;2022-07-22T14:31:53;6.10;;;3.70;;
1947;SDS011;974;52.400;9.818;2022-07-22T14:34:19;8.60;;;4.20;;
1947;SDS011;974;52.400;9.818;2022-07-22T14:36:44;6.60;;;3.43;;
1947;SDS011;974;52.400;9.818;2022-07-22T14:39:10;9.10;;;4.30;;
1947;SDS011;974;52.400;9.818;2022-07-22T14:41:35;7.53;;;4.13;;
1947;SDS011;974;52.400;9.818;2022-07-22T14:44:01;9.23;;;4.63;;
1947;SDS011;974;52.400;9.818;2022-07-22T14:46:26;7.90;;;5.00;;
1947;SDS011;974;52.400;9.818;2022-07-22T14:48:52;7.27;;;4.60;;
1947;SDS011;974;52.400;9.818;2022-07-22T14:51:19;9.80;;;5.00;;
1947;SDS011;974;52.400;9.818;2022-07-22T14:53:45;11.75;;;4.15;;
1947;SDS011;974;52.400;9.818;2022-07-22T14:56:11;6.00;;;3.90;;
1947;SDS011;974;52.400;9.818;2022-07-22T14:58:36;8.67;;;4.37;;
1947;SDS011;974;52.400;9.818;2022-07-22T15:01:02;7.77;;;5.10;;
1947;SDS011;974;52.400;9.818;2022-07-22T15:03:27;7.87;;;4.40;;
1947;SDS011;974;52.400;9.818;2022-07-22T15:05:53;10.23;;;5.47;;
1947;SDS011;974;52.400;9.818;2022-07-22T15:08:19;7.87;;;4.73;;
1947;SDS011;974;52.400;9.818;2022-07-22T15:10:44;7.03;;;4.20;;
1947;SDS011;974;52.400;9.818;2022-07-22T15:13:10;8.43;;;4.80;;
1947;SDS011;974;52.400;9.818;2022-07-22T15:15:35;8.47;;;5.30;;
1947;SDS011;974;52.400;9.818;2022-07-22T15:18:01;8.00;;;4.80;;
1947;SDS011;974;52.400;9.818;2022-07-22T15:20:27;8.60;;;4.47;;
1947;SDS011;974;52.400;9.818;2022-07-22T15:22:52;9.80;;;4.47;;
1947;SDS011;974;52.400;9.818;2022-07-22T15:25:19;7.35;;;3.70;;
1947;SDS011;974;52.400;9.818;2022-07-22T15:27:47;7.10;;;3.83;;
1947;SDS011;974;52.400;9.818;2022-07-22T15:30:13;6.20;;;3.57;;
1947;SDS011;974;52.400;9.818;2022-07-22T15:32:38;6.93;;;3.80;;
1947;SDS011;974;52.400;9.818;2022-07-22T15:35:04;9.57;;;3.40;;
1947;SDS011;974;52.400;9.818;2022-07-22T15:37:31;7.10;;;3.90;;
1947;SDS011;974;52.400;9.818;2022-07-22T15:39:56;6.50;;;4.03;;
1947;SDS011;974;52.400;9.818;2022-07-22T15:42:22;8.77;;;3.40;;
1947;SDS011;974;52.400;9.818;2022-07-22T15:44:48;8.53;;;4.20;;
1947;SDS011;974;52.400;9.818;2022-07-22T15:47:13;9.70;;;3.40;;
1947;SDS011;974;52.400;9.818;2022-07-22T15:49:39;6.67;;;3.70;;